Time;durP1;ratioP1;P1;durP2;ratioP2;P2;SDS_P1;SDS_P2;PMS_P1;PMS_P2;Temp;Humidity;BMP_temperature;BMP_pressure;BME280_temperature;BME280_humidity;BME280_pressure;Samples;Min_cycle;Max_cycle;Signal;HPM_P1;HPM_P2
2023/10/17 00:00:39;;;;;;;9.43;5.28;;;0.90;99.90;;;;;;8264471;28;20502;-83
2023/10/17 00:04:42;;;;;;;10.93;5.45;;;0.80;99.90;;;;;;8255367;28;20032;-84
2023/10/17 00:08:44;;;;;;;9.50;4.95;;;0.70;99.90;;;;;;8252200;28;20031;-83
2023/10/17 00:12:46;;;;;;;9.48;4.97;;;0.60;99.90;;;;;;8263914;28;20030;-84
2023/10/17 00:16:47;;;;;;;7.50;4.80;;;0.60;99.90;;;;;;8263347;28;20026;-84
2023/10/17 00:20:50;;;;;;;9.52;4.93;;;0.60;99.90;;;;;;8265273;28;20106;-84
2023/10/17 00:24:54;;;;;;;10.55;5.95;;;0.60;99.90;;;;;;8270570;28;20496;-84
2023/10/17 00:28:55;;;;;;;10.65;5.47;;;0.50;99.90;;;;;;8278319;28;20406;-84
2023/10/17 00:32:55;;;;;;;10.57;5.25;;;0.50;99.90;;;;;;8254987;28;20030;-84
2023/10/17 00:41:18;;;;;;;7.80;4.57;;;0.30;99.90;;;;;;8283399;28;20112;-84
2023/10/17 00:45:19;;;;;;;9.38;4.78;;;0.20;99.90;;;;;;8249896;28;20029;-83
2023/10/17 00:49:21;;;;;;;10.38;5.03;;;0.00;99.90;;;;;;8288209;28;20037;-84
2023/10/17 00:53:22;;;;;;;9.77;4.82;;;-0.10;99.90;;;;;;8257074;28;20104;-83
2023/10/17 00:57:26;;;;;;;10.38;5.38;;;-0.10;99.90;;;;;;8250357;28;20025;-83
2023/10/17 01:01:27;;;;;;;10.32;5.38;;;0.00;99.90;;;;;;8254161;28;20026;-84
2023/10/17 01:05:29;;;;;;;9.68;5.03;;;0.00;99.90;;;;;;8250902;28;20022;-83
2023/10/17 01:09:34;;;;;;;8.65;5.00;;;-0.20;99.90;;;;;;8258731;28;20017;-84
2023/10/17 01:13:37;;;;;;;10.07;5.03;;;-0.20;99.90;;;;;;8267888;28;20045;-84
2023/10/17 01:17:38;;;;;;;8.98;4.70;;;-0.30;99.90;;;;;;8255619;28;20108;-84
2023/10/17 01:21:40;;;;;;;11.32;5.47;;;-0.40;99.90;;;;;;8250507;28;20131;-84
2023/10/17 01:25:41;;;;;;;8.77;5.03;;;-0.50;99.90;;;;;;8255606;28;20058;-84
2023/10/17 01:29:43;;;;;;;8.55;4.82;;;-0.50;99.90;;;;;;8280804;28;20026;-84
2023/10/17 01:33:44;;;;;;;9.27;4.88;;;-0.50;99.90;;;;;;8274414;28;20029;-84
2023/10/17 01:37:46;;;;;;;11.27;6.00;;;-0.50;99.90;;;;;;8266046;28;20022;-84
2023/10/17 01:41:48;;;;;;;10.95;5.20;;;-0.40;99.90;;;;;;8253945;28;20054;-83
2023/10/17 01:45:50;;;;;;;13.15;5.80;;;-0.30;99.90;;;;;;8247113;28;20141;-84
2023/10/17 01:49:50;;;;;;;12.07;5.90;;;-0.30;99.90;;;;;;8257263;28;20014;-84
2023/10/17 01:53:51;;;;;;;12.00;5.70;;;-0.50;99.90;;;;;;8269996;28;20022;-84
2023/10/17 01:57:57;;;;;;;11.35;5.03;;;-0.60;99.90;;;;;;8253546;28;20113;-84
2023/10/17 02:01:59;;;;;;;12.98;5.93;;;-0.70;99.90;;;;;;8267935;28;20109;-83
2023/10/17 02:06:00;;;;;;;13.27;5.85;;;-0.60;99.90;;;;;;8266177;28;20036;-83
2023/10/17 02:10:00;;;;;;;13.30;6.38;;;-0.60;99.90;;;;;;8253974;28;20027;-84
2023/10/17 02:14:01;;;;;;;10.00;5.55;;;-0.50;99.90;;;;;;8258538;28;20030;-85
2023/10/17 02:18:12;;;;;;;10.30;5.35;;;-0.80;99.90;;;;;;8245815;28;20029;-84
2023/10/17 02:22:16;;;;;;;13.20;5.75;;;-0.90;99.90;;;;;;8249562;28;20033;-84
2023/10/17 02:26:23;;;;;;;8.65;4.63;;;-1.00;99.90;;;;;;8277715;28;20026;-84
2023/10/17 02:30:24;;;;;;;10.52;5.30;;;-0.90;99.90;;;;;;8250390;28;20116;-83
2023/10/17 02:34:30;;;;;;;12.13;4.72;;;-1.00;99.90;;;;;;8250818;28;20422;-83
2023/10/17 02:38:31;;;;;;;9.77;4.78;;;-1.20;99.90;;;;;;8259516;28;20320;-84
2023/10/17 02:42:31;;;;;;;9.75;4.90;;;-1.30;99.90;;;;;;8258999;28;20030;-83
2023/10/17 02:46:33;;;;;;;13.77;5.75;;;-1.20;99.90;;;;;;8267280;28;20027;-84
2023/10/17 02:59:04;;;;;;;8.15;4.68;;;-1.30;99.90;;;;;;8269507;28;20056;-83
2023/10/17 03:03:12;;;;;;;14.07;5.35;;;-1.30;99.90;;;;;;8252830;28;20038;-84
2023/10/17 03:07:15;;;;;;;12.60;6.07;;;-1.30;99.90;;;;;;8279835;28;20482;-83
2023/10/17 03:11:17;;;;;;;8.68;4.28;;;-1.30;99.90;;;;;;8287912;28;20109;-84
2023/10/17 03:15:18;;;;;;;26.30;6.55;;;-1.20;99.90;;;;;;8270671;28;20047;-84
2023/10/17 03:19:26;;;;;;;14.20;5.35;;;-1.20;99.90;;;;;;8276073;28;20034;-84
2023/10/17 03:23:28;;;;;;;19.05;5.45;;;-1.20;99.90;;;;;;8257084;28;20026;-83
2023/10/17 03:27:36;;;;;;;14.95;6.65;;;-1.20;99.90;;;;;;8262327;28;20397;-84
2023/10/17 03:31:38;;;;;;;10.35;5.38;;;-1.20;99.90;;;;;;8282823;28;20029;-83
2023/10/17 03:44:15;;;;;;;10.07;5.00;;;-1.20;99.90;;;;;;8261343;28;20113;-83
2023/10/17 03:48:20;;;;;;;10.68;4.88;;;-1.30;99.90;;;;;;8268780;28;20022;-83
2023/10/17 03:52:20;;;;;;;11.35;5.45;;;-1.40;99.90;;;;;;8250414;28;20560;-84
2023/10/17 03:56:24;;;;;;;12.20;5.28;;;-1.40;99.90;;;;;;8258618;28;20018;-83
2023/10/17 04:00:27;;;;;;;9.20;4.60;;;-1.40;99.90;;;;;;8251392;28;20058;-83
2023/10/17 04:04:35;;;;;;;11.60;5.55;;;-1.40;99.90;;;;;;8268943;28;20026;-83
2023/10/17 04:08:49;;;;;;;12.10;5.90;;;-1.30;99.90;;;;;;8260329;28;20027;-83
2023/10/17 04:13:06;;;;;;;13.23;5.63;;;-1.20;99.90;;;;;;8273176;28;20101;-84
2023/10/17 04:17:07;;;;;;;11.15;5.30;;;-1.20;99.90;;;;;;8257226;28;20076;-82
2023/10/17 04:25:38;;;;;;;10.30;5.13;;;-1.00;99.90;;;;;;8282922;28;20041;-82
2023/10/17 04:29:42;;;;;;;14.38;6.70;;;-0.90;99.90;;;;;;8250879;28;20031;-82
2023/10/17 04:33:43;;;;;;;14.43;6.40;;;-0.70;99.90;;;;;;8271654;28;20097;-83
2023/10/17 04:37:45;;;;;;;14.15;6.78;;;-0.50;99.90;;;;;;8263836;28;20501;-82
2023/10/17 04:45:56;;;;;;;13.65;6.30;;;0.50;99.90;;;;;;8272602;28;20040;-83
2023/10/17 04:49:56;;;;;;;12.90;6.03;;;0.80;99.90;;;;;;8258360;28;20057;-83
2023/10/17 04:54:05;;;;;;;13.00;6.75;;;0.60;99.90;;;;;;8254385;28;20037;-83
2023/10/17 04:58:30;;;;;;;10.80;5.65;;;0.50;99.90;;;;;;8272681;28;20084;-83
2023/10/17 05:07:07;;;;;;;9.88;5.13;;;0.50;99.90;;;;;;8281216;28;20050;-83
2023/10/17 06:19:52;;;;;;;31.17;9.70;;;1.90;99.90;;;;;;8275884;28;20037;-84
2023/10/17 06:36:39;;;;;;;18.23;9.35;;;2.30;99.90;;;;;;8277399;28;20034;-83
2023/10/17 06:40:45;;;;;;;21.70;9.75;;;2.40;99.90;;;;;;8267929;28;20033;-83
2023/10/17 06:45:07;;;;;;;17.73;8.80;;;2.30;99.90;;;;;;8286789;28;20114;-85
2023/10/17 06:49:08;;;;;;;24.65;9.10;;;2.40;99.90;;;;;;8256971;28;20085;-84
2023/10/17 06:53:15;;;;;;;25.30;9.85;;;2.50;99.90;;;;;;8263231;28;20031;-84
2023/10/17 06:57:35;;;;;;;19.33;9.10;;;2.70;99.90;;;;;;8270640;28;20026;-83
2023/10/17 07:01:38;;;;;;;16.45;8.63;;;2.70;99.90;;;;;;8269955;28;20474;-83
2023/10/17 07:05:39;;;;;;;19.77;9.65;;;2.50;99.90;;;;;;8264413;28;20026;-83
2023/10/17 07:09:40;;;;;;;23.63;10.30;;;2.70;99.90;;;;;;8269440;28;20037;-83
2023/10/17 07:22:35;;;;;;;19.25;10.35;;;3.10;99.90;;;;;;8272333;28;20401;-83
2023/10/17 07:26:38;;;;;;;21.13;9.80;;;3.00;99.90;;;;;;8269454;28;20515;-83
2023/10/17 07:35:25;;;;;;;21.45;10.07;;;3.20;99.90;;;;;;8251842;28;20038;-84
2023/10/17 07:39:29;;;;;;;16.77;8.85;;;3.20;99.90;;;;;;8273409;28;20033;-84
2023/10/17 07:43:32;;;;;;;17.35;8.80;;;3.50;99.90;;;;;;8268996;28;20026;-84
2023/10/17 07:47:33;;;;;;;21.60;10.05;;;3.50;99.90;;;;;;8271871;28;20034;-84
2023/10/17 07:51:35;;;;;;;14.15;7.63;;;3.60;99.90;;;;;;8255785;28;20635;-83
2023/10/17 07:55:38;;;;;;;21.35;10.25;;;3.80;99.90;;;;;;8259401;28;20015;-83
2023/10/17 07:59:38;;;;;;;18.05;9.38;;;4.00;99.90;;;;;;8283722;28;20017;-84
2023/10/17 08:03:49;;;;;;;14.90;8.90;;;3.80;99.90;;;;;;8266851;28;20126;-84
2023/10/17 08:08:01;;;;;;;16.02;9.15;;;4.10;99.90;;;;;;8287743;28;20497;-83
2023/10/17 08:12:03;;;;;;;15.90;8.60;;;4.30;99.90;;;;;;8256036;28;20027;-84
2023/10/17 08:16:05;;;;;;;13.77;8.82;;;4.50;99.90;;;;;;8266419;28;20022;-84
2023/10/17 08:24:07;;;;;;;15.63;8.85;;;4.70;99.90;;;;;;8271758;28;20564;-83
2023/10/17 08:28:17;;;;;;;20.05;9.27;;;4.90;99.90;;;;;;8278980;28;20023;-83
2023/10/17 08:36:53;;;;;;;17.38;9.60;;;5.00;99.90;;;;;;8282302;28;20029;-84
2023/10/17 08:40:54;;;;;;;19.30;10.00;;;4.90;99.90;;;;;;8293523;28;20052;-84
2023/10/17 08:44:55;;;;;;;17.45;8.73;;;5.20;99.90;;;;;;8255284;28;20081;-84
2023/10/17 08:48:56;;;;;;;21.13;9.88;;;5.50;99.90;;;;;;8250974;28;20449;-84
2023/10/17 08:52:59;;;;;;;24.65;10.02;;;5.70;99.90;;;;;;8285461;28;20021;-83
2023/10/17 08:57:01;;;;;;;22.42;10.15;;;5.90;99.90;;;;;;8291878;28;20037;-83
2023/10/17 09:01:13;;;;;;;14.95;8.95;;;5.90;99.90;;;;;;8271197;28;20113;-83
2023/10/17 09:05:33;;;;;;;18.50;10.60;;;5.90;99.90;;;;;;8269486;28;20578;-83
2023/10/17 09:09:34;;;;;;;16.60;10.13;;;5.80;99.90;;;;;;8269054;28;20585;-83
2023/10/17 09:18:08;;;;;;;15.90;8.75;;;6.20;99.90;;;;;;8266489;28;20491;-83
2023/10/17 09:22:10;;;;;;;14.93;9.05;;;6.60;99.90;;;;;;8260604;28;20053;-84
2023/10/17 09:26:19;;;;;;;17.88;9.13;;;6.60;99.90;;;;;;8278204;28;20022;-84
2023/10/17 09:30:23;;;;;;;14.57;8.68;;;6.70;99.90;;;;;;8266853;28;20026;-84
2023/10/17 09:34:25;;;;;;;13.77;8.30;;;6.80;99.90;;;;;;8272470;28;20057;-84
2023/10/17 09:38:27;;;;;;;14.25;8.43;;;7.00;99.90;;;;;;8264156;28;20026;-84
2023/10/17 09:42:28;;;;;;;15.95;8.55;;;7.00;99.90;;;;;;8264601;28;20035;-84
2023/10/17 09:46:29;;;;;;;16.02;7.28;;;7.00;99.90;;;;;;8258149;28;20049;-83
2023/10/17 09:50:34;;;;;;;13.68;7.70;;;7.00;99.90;;;;;;8268659;28;20510;-83
2023/10/17 09:54:40;;;;;;;15.50;8.52;;;7.00;99.90;;;;;;8264955;28;20033;-84
2023/10/17 09:58:50;;;;;;;13.40;8.02;;;7.40;99.90;;;;;;8287292;28;20049;-84
2023/10/17 10:02:52;;;;;;;14.40;8.93;;;8.00;99.90;;;;;;8272757;28;20574;-84
2023/10/17 10:07:20;;;;;;;13.38;8.13;;;8.20;99.90;;;;;;8266794;28;20028;-84
2023/10/17 10:11:21;;;;;;;13.10;7.95;;;7.80;99.90;;;;;;8274835;28;20635;-84
2023/10/17 10:15:47;;;;;;;13.77;8.20;;;7.60;99.90;;;;;;8283666;28;20021;-84
2023/10/17 10:19:49;;;;;;;13.95;8.82;;;7.90;99.90;;;;;;8262813;28;20046;-84
2023/10/17 10:23:54;;;;;;;15.25;8.13;;;7.60;99.90;;;;;;8271859;28;20022;-84
2023/10/17 10:28:25;;;;;;;11.55;7.25;;;8.10;99.90;;;;;;8277660;28;20058;-85
2023/10/17 10:32:33;;;;;;;13.93;7.88;;;8.40;99.90;;;;;;8264396;28;20112;-84
2023/10/17 10:36:35;;;;;;;12.40;8.50;;;8.50;99.90;;;;;;8259380;28;20034;-84
2023/10/17 10:40:39;;;;;;;14.82;9.82;;;8.80;99.90;;;;;;8263576;28;20030;-84
2023/10/17 10:44:41;;;;;;;10.93;7.63;;;9.00;99.90;;;;;;8254673;28;20031;-84
2023/10/17 10:48:51;;;;;;;11.48;7.57;;;9.20;99.90;;;;;;8260386;28;20112;-84
2023/10/17 10:52:51;;;;;;;10.68;7.00;;;9.50;99.90;;;;;;8255973;28;20157;-84
2023/10/17 10:56:52;;;;;;;12.07;7.93;;;9.60;99.90;;;;;;8277256;28;20026;-84
2023/10/17 11:00:54;;;;;;;9.98;7.15;;;9.80;99.90;;;;;;8272788;28;20061;-85
2023/10/17 11:04:56;;;;;;;9.68;7.00;;;10.30;99.90;;;;;;8269674;28;20403;-84
2023/10/17 11:08:56;;;;;;;12.15;7.60;;;10.40;99.90;;;;;;8272338;28;20025;-84
2023/10/17 11:12:57;;;;;;;11.27;7.53;;;10.40;99.90;;;;;;8273345;28;20506;-84
2023/10/17 11:16:57;;;;;;;10.40;7.55;;;10.80;99.90;;;;;;8272171;28;20030;-85
2023/10/17 11:20:58;;;;;;;11.43;7.63;;;11.70;99.90;;;;;;8268081;28;20019;-85
2023/10/17 11:24:58;;;;;;;10.60;7.50;;;12.00;99.90;;;;;;8275143;28;20098;-85
2023/10/17 11:29:03;;;;;;;12.98;7.38;;;12.50;99.90;;;;;;8275203;28;20034;-85
2023/10/17 11:33:04;;;;;;;11.05;7.22;;;14.30;99.90;;;;;;8282283;28;20075;-85
2023/10/17 11:37:11;;;;;;;10.15;7.07;;;15.10;99.90;;;;;;8277649;28;20036;-85
2023/10/17 11:41:15;;;;;;;11.02;7.07;;;15.30;99.90;;;;;;8260398;28;20023;-84
2023/10/17 11:45:20;;;;;;;11.00;7.35;;;13.30;99.90;;;;;;8265331;28;20390;-85
2023/10/17 11:49:26;;;;;;;11.40;7.28;;;12.60;99.90;;;;;;8257114;28;20109;-84
2023/10/17 11:53:27;;;;;;;10.85;7.70;;;11.90;99.90;;;;;;8292150;28;20132;-84
2023/10/17 11:57:29;;;;;;;11.88;7.82;;;11.60;99.90;;;;;;8258719;28;20026;-84
2023/10/17 12:01:32;;;;;;;11.32;6.78;;;11.70;99.90;;;;;;8262863;28;20053;-84
2023/10/17 12:05:38;;;;;;;10.60;6.88;;;12.70;99.90;;;;;;8258798;28;20023;-85
2023/10/17 12:09:38;;;;;;;10.82;7.32;;;12.50;99.90;;;;;;8277530;28;20029;-84
2023/10/17 12:13:39;;;;;;;13.85;7.65;;;11.90;99.90;;;;;;8258524;28;20394;-84
2023/10/17 12:17:40;;;;;;;11.43;6.63;;;12.10;99.90;;;;;;8277700;28;20023;-83
2023/10/17 12:21:41;;;;;;;12.02;7.18;;;12.20;99.90;;;;;;8285404;28;20026;-84
2023/10/17 12:25:42;;;;;;;11.25;7.60;;;11.40;99.90;;;;;;8284416;28;20125;-84
2023/10/17 12:29:44;;;;;;;12.38;6.95;;;10.80;99.90;;;;;;8283256;28;20053;-84
2023/10/17 12:33:45;;;;;;;11.50;7.50;;;10.80;99.90;;;;;;8272447;28;20049;-84
2023/10/17 12:37:45;;;;;;;11.25;7.75;;;10.70;99.90;;;;;;8267167;28;20510;-84
2023/10/17 12:41:46;;;;;;;11.73;7.63;;;10.70;99.90;;;;;;8270459;28;20067;-84
2023/10/17 12:45:47;;;;;;;11.52;7.50;;;10.70;99.90;;;;;;8266928;28;20034;-84
2023/10/17 12:49:47;;;;;;;12.20;7.65;;;10.80;99.90;;;;;;8253370;28;20081;-85
2023/10/17 12:53:48;;;;;;;11.82;7.80;;;11.00;99.90;;;;;;8262496;28;20414;-84
2023/10/17 12:57:48;;;;;;;11.20;7.38;;;10.70;99.90;;;;;;8257138;28;20080;-84
2023/10/17 13:01:51;;;;;;;13.13;8.30;;;10.80;99.90;;;;;;8260883;28;20026;-84
2023/10/17 13:05:51;;;;;;;12.48;7.63;;;10.60;99.90;;;;;;8267802;28;20034;-84
2023/10/17 13:09:52;;;;;;;13.05;7.85;;;10.20;99.90;;;;;;8268027;28;20030;-85
2023/10/17 13:13:53;;;;;;;11.90;8.23;;;10.00;99.90;;;;;;8270969;28;20018;-84
2023/10/17 13:17:55;;;;;;;12.63;7.45;;;9.70;99.90;;;;;;8288004;28;20033;-84
2023/10/17 13:21:56;;;;;;;11.50;7.65;;;9.50;99.90;;;;;;8264741;28;20056;-86
2023/10/17 13:25:57;;;;;;;12.35;7.70;;;9.60;99.90;;;;;;8264783;28;20116;-84
2023/10/17 13:29:57;;;;;;;13.07;7.78;;;9.60;99.90;;;;;;8255725;28;20030;-85
2023/10/17 13:33:58;;;;;;;12.82;7.90;;;9.70;99.90;;;;;;8268590;28;20018;-85
2023/10/17 13:37:59;;;;;;;14.30;8.48;;;9.50;99.90;;;;;;8281961;28;20098;-84
2023/10/17 13:42:03;;;;;;;11.30;7.70;;;9.60;99.90;;;;;;8269675;28;20056;-85
2023/10/17 13:46:16;;;;;;;12.90;7.75;;;9.50;99.90;;;;;;8253901;28;20030;-85
2023/10/17 13:50:18;;;;;;;13.05;8.10;;;9.50;99.90;;;;;;8283999;28;20026;-84
2023/10/17 13:54:19;;;;;;;12.57;7.82;;;9.70;99.90;;;;;;8258746;28;20104;-85
2023/10/17 13:58:20;;;;;;;13.40;8.20;;;9.90;99.90;;;;;;8263997;28;20541;-85
2023/10/17 14:02:21;;;;;;;14.48;8.35;;;10.00;99.90;;;;;;8266419;28;20026;-85
2023/10/17 14:06:34;;;;;;;18.95;9.05;;;9.90;99.90;;;;;;8263994;28;20022;-85
2023/10/17 14:10:37;;;;;;;13.85;7.93;;;10.00;99.90;;;;;;8269681;28;20612;-85
2023/10/17 14:14:38;;;;;;;12.60;8.77;;;10.00;99.90;;;;;;8269094;28;20110;-85
2023/10/17 14:18:52;;;;;;;13.45;8.85;;;10.20;99.90;;;;;;8258516;28;20514;-85
2023/10/17 14:23:08;;;;;;;14.45;8.77;;;10.70;99.90;;;;;;8263329;28;20030;-85
2023/10/17 14:27:12;;;;;;;13.68;8.07;;;10.70;99.90;;;;;;8264196;28;20088;-85
2023/10/17 14:31:12;;;;;;;12.43;7.53;;;10.90;99.90;;;;;;8277463;28;20045;-85
2023/10/17 14:35:13;;;;;;;11.60;8.13;;;10.70;99.90;;;;;;8275219;28;20368;-84
2023/10/17 14:39:14;;;;;;;12.65;8.07;;;10.30;99.90;;;;;;8262926;28;20088;-84
2023/10/17 14:43:14;;;;;;;14.23;8.18;;;10.10;99.90;;;;;;8257477;28;20430;-84
2023/10/17 14:47:17;;;;;;;13.30;8.45;;;10.00;99.90;;;;;;8249280;28;20447;-84
2023/10/17 14:51:18;;;;;;;12.38;8.00;;;10.10;99.90;;;;;;8268008;28;20026;-84
2023/10/17 14:55:23;;;;;;;11.52;7.97;;;9.90;99.90;;;;;;8261591;28;20018;-84
2023/10/17 14:59:24;;;;;;;14.73;8.23;;;9.90;99.90;;;;;;8294224;28;20034;-84
2023/10/17 15:03:25;;;;;;;16.75;7.88;;;10.10;99.90;;;;;;8265049;28;20057;-84
2023/10/17 15:07:26;;;;;;;12.90;8.15;;;9.90;99.90;;;;;;8285666;28;20130;-84
2023/10/17 15:11:27;;;;;;;13.23;8.45;;;9.90;99.90;;;;;;8265915;28;20038;-84
2023/10/17 15:15:27;;;;;;;16.60;9.50;;;9.70;99.90;;;;;;8267095;28;20018;-85
2023/10/17 15:19:28;;;;;;;15.98;9.23;;;9.50;99.90;;;;;;8265876;28;20029;-85
2023/10/17 15:23:29;;;;;;;15.05;8.90;;;9.40;99.90;;;;;;8262151;28;20034;-84
2023/10/17 15:27:29;;;;;;;14.82;9.00;;;9.20;99.90;;;;;;8272777;28;20491;-84
2023/10/17 15:31:30;;;;;;;13.73;8.02;;;9.10;99.90;;;;;;8285549;28;20022;-84
2023/10/17 15:35:31;;;;;;;12.80;8.30;;;9.00;99.90;;;;;;8264728;28;20053;-85
2023/10/17 15:39:31;;;;;;;16.98;9.95;;;8.90;99.90;;;;;;8268849;28;20494;-85
2023/10/17 15:43:32;;;;;;;18.02;10.13;;;8.80;99.90;;;;;;8261414;28;20044;-84
2023/10/17 15:47:32;;;;;;;14.88;9.55;;;8.60;99.90;;;;;;8271562;28;20501;-84
2023/10/17 15:51:33;;;;;;;16.58;9.23;;;8.40;99.90;;;;;;8260721;28;20041;-84
2023/10/17 15:55:34;;;;;;;15.07;9.32;;;8.30;99.90;;;;;;8272678;28;20048;-85
2023/10/17 15:59:34;;;;;;;16.38;9.18;;;8.20;99.90;;;;;;8261823;28;20057;-85
2023/10/17 16:03:35;;;;;;;16.67;9.80;;;8.20;99.90;;;;;;8269375;28;20033;-85
2023/10/17 16:07:36;;;;;;;15.38;9.10;;;8.10;99.90;;;;;;8271794;28;20410;-84
2023/10/17 16:11:37;;;;;;;15.18;9.07;;;7.90;99.90;;;;;;8275227;28;20036;-84
2023/10/17 16:15:39;;;;;;;18.80;8.85;;;7.70;99.90;;;;;;8258140;28;20483;-82
2023/10/17 16:19:40;;;;;;;15.35;8.85;;;7.80;99.90;;;;;;8279456;28;20040;-83
2023/10/17 16:23:41;;;;;;;15.68;9.73;;;7.80;99.90;;;;;;8267877;28;20479;-83
2023/10/17 16:27:44;;;;;;;17.08;10.07;;;7.60;99.90;;;;;;8279893;28;20121;-84
2023/10/17 16:31:44;;;;;;;15.38;8.65;;;7.40;99.90;;;;;;8260954;28;20026;-84
2023/10/17 16:35:45;;;;;;;13.45;8.50;;;7.20;99.90;;;;;;8281284;28;20430;-85
2023/10/17 16:39:45;;;;;;;15.77;8.98;;;6.90;99.90;;;;;;8265598;28;20042;-84
2023/10/17 16:43:46;;;;;;;15.38;8.85;;;6.80;99.90;;;;;;8280955;28;20022;-85
2023/10/17 16:47:46;;;;;;;18.02;9.57;;;6.80;99.90;;;;;;8246991;28;20088;-85
2023/10/17 16:51:47;;;;;;;14.25;8.88;;;6.80;99.90;;;;;;8284054;28;20021;-85
2023/10/17 16:55:48;;;;;;;16.15;9.15;;;6.50;99.90;;;;;;8259076;28;20029;-85
2023/10/17 16:59:49;;;;;;;16.13;8.43;;;6.30;99.90;;;;;;8283538;28;20090;-84
2023/10/17 17:03:49;;;;;;;16.60;9.70;;;6.20;99.90;;;;;;8288925;28;20515;-85
2023/10/17 17:07:50;;;;;;;18.00;9.43;;;6.00;99.90;;;;;;8272042;28;20080;-85
2023/10/17 17:11:52;;;;;;;18.73;9.95;;;6.00;99.90;;;;;;8274699;28;20034;-85
2023/10/17 17:15:52;;;;;;;16.75;9.55;;;5.90;99.90;;;;;;8259663;28;20033;-85
2023/10/17 17:19:53;;;;;;;16.73;9.80;;;5.70;99.90;;;;;;8273462;28;20029;-85
2023/10/17 17:23:54;;;;;;;21.23;10.88;;;5.60;99.90;;;;;;8294135;28;20066;-85
2023/10/17 17:27:56;;;;;;;18.35;10.48;;;5.50;99.90;;;;;;8292101;28;20049;-83
2023/10/17 17:31:57;;;;;;;16.60;10.00;;;5.50;99.90;;;;;;8256602;28;20030;-84
2023/10/17 17:35:57;;;;;;;17.42;9.85;;;5.30;99.90;;;;;;8258138;28;20034;-84
2023/10/17 17:39:58;;;;;;;19.33;10.38;;;5.30;99.90;;;;;;8279051;28;20051;-84
2023/10/17 17:43:59;;;;;;;20.85;10.88;;;5.30;99.90;;;;;;8261126;28;20023;-82
2023/10/17 17:48:00;;;;;;;19.23;10.90;;;5.30;99.90;;;;;;8253878;28;20042;-83
2023/10/17 17:52:03;;;;;;;18.00;10.80;;;5.30;99.90;;;;;;8258172;28;20041;-84
2023/10/17 17:56:06;;;;;;;19.02;10.98;;;5.30;99.90;;;;;;8266632;28;20029;-83
2023/10/17 18:00:15;;;;;;;18.00;10.90;;;5.30;99.90;;;;;;8284403;28;20026;-84
2023/10/17 18:04:15;;;;;;;19.15;10.65;;;5.00;99.90;;;;;;8249574;28;20027;-84
2023/10/17 18:08:16;;;;;;;17.40;10.38;;;4.90;99.90;;;;;;8272652;28;20038;-84
2023/10/17 18:12:18;;;;;;;19.73;10.38;;;4.80;99.90;;;;;;8283015;28;20031;-84
2023/10/17 18:16:18;;;;;;;22.13;11.75;;;4.70;99.90;;;;;;8276899;28;20037;-85
2023/10/17 18:20:19;;;;;;;19.65;10.30;;;4.60;99.90;;;;;;8258194;28;20023;-84
2023/10/17 18:24:19;;;;;;;19.88;11.05;;;4.40;99.90;;;;;;8261844;28;20029;-84
2023/10/17 18:28:21;;;;;;;15.77;9.48;;;4.20;99.90;;;;;;8265612;28;20501;-84
2023/10/17 18:32:23;;;;;;;23.27;10.68;;;4.10;99.90;;;;;;8255324;28;20018;-84
2023/10/17 18:36:27;;;;;;;16.35;10.35;;;4.00;99.90;;;;;;8260479;28;20030;-84
2023/10/17 18:40:29;;;;;;;20.35;11.07;;;3.80;99.90;;;;;;8260564;28;20045;-83
2023/10/17 18:44:30;;;;;;;18.42;9.65;;;3.80;99.90;;;;;;8279936;28;20025;-84
2023/10/17 18:48:33;;;;;;;20.98;11.00;;;3.80;99.90;;;;;;8271354;28;20488;-84
2023/10/17 18:52:34;;;;;;;20.25;10.27;;;3.70;99.90;;;;;;8261298;28;20029;-84
2023/10/17 18:56:35;;;;;;;20.80;10.63;;;3.80;99.90;;;;;;8272733;28;20398;-84
2023/10/17 19:00:37;;;;;;;22.40;12.10;;;3.80;99.90;;;;;;8277800;28;20038;-84
2023/10/17 19:04:39;;;;;;;21.63;11.05;;;3.80;99.90;;;;;;8262332;28;20591;-85
2023/10/17 19:08:40;;;;;;;24.08;12.52;;;3.80;99.90;;;;;;8259212;28;20050;-85
2023/10/17 19:12:41;;;;;;;21.85;11.27;;;3.70;99.90;;;;;;8276644;28;20023;-84
2023/10/17 19:16:42;;;;;;;23.55;11.23;;;3.70;99.90;;;;;;8280805;28;20549;-84
2023/10/17 19:20:43;;;;;;;19.77;10.70;;;3.70;99.90;;;;;;8260740;28;20026;-84
2023/10/17 19:24:44;;;;;;;21.40;10.90;;;3.60;99.90;;;;;;8282871;28;20061;-85
2023/10/17 19:28:44;;;;;;;17.10;9.48;;;3.40;99.90;;;;;;8265693;28;20035;-84
2023/10/17 19:32:45;;;;;;;18.75;10.02;;;3.10;99.90;;;;;;8273258;28;20017;-84
2023/10/17 19:36:46;;;;;;;21.92;10.48;;;2.90;99.90;;;;;;8266452;28;20034;-84
2023/10/17 19:40:47;;;;;;;21.13;10.65;;;2.90;99.90;;;;;;8272219;28;20057;-84
2023/10/17 19:44:48;;;;;;;20.77;10.25;;;2.80;99.90;;;;;;8262082;28;20069;-84
2023/10/17 19:48:49;;;;;;;20.38;9.82;;;2.80;99.90;;;;;;8274351;28;20060;-84
2023/10/17 19:52:50;;;;;;;21.35;10.35;;;2.80;99.90;;;;;;8255214;28;20482;-83
2023/10/17 19:56:51;;;;;;;19.35;10.73;;;2.70;99.90;;;;;;8255959;28;20105;-85
2023/10/17 20:00:52;;;;;;;22.40;11.10;;;2.70;99.90;;;;;;8261887;28;20650;-84
2023/10/17 20:04:53;;;;;;;18.08;10.10;;;2.70;99.90;;;;;;8255266;28;20495;-84
2023/10/17 20:08:53;;;;;;;21.27;10.25;;;2.60;99.90;;;;;;8252793;28;20076;-84
2023/10/17 20:12:54;;;;;;;16.58;9.45;;;2.60;99.90;;;;;;8266698;28;20703;-84
2023/10/17 20:16:55;;;;;;;22.55;11.23;;;2.50;99.90;;;;;;8265881;28;20037;-84
2023/10/17 20:20:56;;;;;;;22.30;10.70;;;2.50;99.90;;;;;;8260607;28;20134;-84
2023/10/17 20:24:58;;;;;;;21.70;11.63;;;2.50;99.90;;;;;;8281175;28;20084;-84
2023/10/17 20:28:58;;;;;;;21.63;10.93;;;2.50;99.90;;;;;;8256632;28;20078;-84
2023/10/17 20:32:59;;;;;;;21.92;10.30;;;2.50;99.90;;;;;;8256074;28;20080;-84
2023/10/17 20:36:59;;;;;;;20.13;10.65;;;2.50;99.90;;;;;;8263304;28;20099;-84
2023/10/17 20:41:01;;;;;;;23.42;10.50;;;2.40;99.90;;;;;;8273156;28;20018;-84
2023/10/17 20:45:03;;;;;;;18.48;10.20;;;2.30;99.90;;;;;;8265607;28;20118;-84
2023/10/17 20:49:03;;;;;;;20.45;10.70;;;2.20;99.90;;;;;;8268712;28;20037;-84
2023/10/17 20:53:04;;;;;;;20.42;10.27;;;2.20;99.90;;;;;;8261133;28;20057;-84
2023/10/17 20:57:06;;;;;;;19.52;10.40;;;2.10;99.90;;;;;;8274987;28;20046;-84
2023/10/17 21:01:07;;;;;;;22.13;10.48;;;2.10;99.90;;;;;;8289502;28;20029;-83
2023/10/17 21:05:07;;;;;;;19.88;9.98;;;2.10;99.90;;;;;;8263719;28;20486;-84
2023/10/17 21:09:08;;;;;;;40.17;11.20;;;2.00;99.90;;;;;;8252478;28;20035;-84
2023/10/17 21:13:09;;;;;;;21.55;9.95;;;1.90;99.90;;;;;;8271811;28;20046;-84
2023/10/17 21:17:09;;;;;;;21.23;10.25;;;2.00;99.90;;;;;;8253342;28;20030;-83
2023/10/17 21:21:11;;;;;;;19.95;10.43;;;2.00;99.90;;;;;;8278616;28;20027;-83
2023/10/17 21:25:12;;;;;;;17.88;10.25;;;1.90;99.90;;;;;;8285246;28;20034;-84
2023/10/17 21:29:13;;;;;;;19.48;9.63;;;1.90;99.90;;;;;;8271615;28;20038;-83
2023/10/17 21:33:13;;;;;;;20.85;9.52;;;1.90;99.90;;;;;;8287963;28;20049;-83
2023/10/17 21:37:14;;;;;;;20.15;9.75;;;1.90;99.90;;;;;;8259875;28;20046;-82
2023/10/17 21:41:14;;;;;;;19.20;10.02;;;1.80;99.90;;;;;;8261524;28;20625;-84
2023/10/17 21:45:15;;;;;;;18.75;10.02;;;1.80;99.90;;;;;;8256898;28;20030;-84
2023/10/17 21:49:17;;;;;;;21.70;10.25;;;1.70;99.90;;;;;;8258110;28;20038;-84
2023/10/17 21:53:18;;;;;;;18.15;10.00;;;1.60;99.90;;;;;;8254789;28;20034;-84
2023/10/17 21:57:18;;;;;;;21.25;10.50;;;1.50;99.90;;;;;;8270311;28;20030;-84
2023/10/17 22:01:20;;;;;;;20.38;9.40;;;1.50;99.90;;;;;;8272220;28;20487;-84
2023/10/17 22:05:22;;;;;;;20.08;9.68;;;1.50;99.90;;;;;;8268916;28;20030;-84
2023/10/17 22:09:23;;;;;;;18.58;9.82;;;1.50;99.90;;;;;;8254190;28;21725;-84
2023/10/17 22:13:23;;;;;;;16.77;9.05;;;1.30;99.90;;;;;;8271947;28;20030;-84
2023/10/17 22:17:24;;;;;;;17.60;9.43;;;1.40;99.90;;;;;;8255316;28;20037;-84
2023/10/17 22:21:27;;;;;;;17.35;9.85;;;1.40;99.90;;;;;;8260676;28;20076;-84
2023/10/17 22:25:27;;;;;;;16.05;9.35;;;1.30;99.90;;;;;;8284702;28;20530;-83
2023/10/17 22:29:28;;;;;;;22.98;10.10;;;1.30;99.90;;;;;;8263445;28;20025;-84
2023/10/17 22:33:28;;;;;;;20.38;10.02;;;1.50;99.90;;;;;;8257103;28;20044;-83
2023/10/17 22:37:29;;;;;;;17.00;9.10;;;1.50;99.90;;;;;;8260949;28;20026;-84
2023/10/17 22:41:30;;;;;;;17.63;9.18;;;1.50;99.90;;;;;;8269562;28;20107;-82
2023/10/17 22:45:31;;;;;;;18.20;8.18;;;1.20;99.90;;;;;;8271167;28;20026;-84
2023/10/17 22:49:31;;;;;;;15.68;8.82;;;1.20;99.90;;;;;;8262072;28;20293;-84
2023/10/17 22:53:33;;;;;;;29.15;8.98;;;1.10;99.90;;;;;;8252145;28;20072;-83
2023/10/17 22:57:33;;;;;;;17.75;9.27;;;1.00;99.90;;;;;;8251778;28;20031;-84
2023/10/17 23:01:34;;;;;;;17.17;9.30;;;1.00;99.90;;;;;;8250780;28;20084;-84
2023/10/17 23:05:34;;;;;;;19.60;9.85;;;1.10;99.90;;;;;;8251662;28;20029;-84
2023/10/17 23:09:35;;;;;;;16.42;9.57;;;1.20;99.90;;;;;;8251273;28;20046;-83
2023/10/17 23:13:36;;;;;;;18.42;8.63;;;1.20;99.90;;;;;;8243248;28;20582;-84
2023/10/17 23:17:37;;;;;;;18.48;10.00;;;1.30;99.90;;;;;;8261037;28;20022;-84